createdAt,value
2022-09-16T00:00:46.277Z,2.63
2022-09-16T00:03:13.572Z,2.55
2022-09-16T00:05:42.384Z,2.63
2022-09-16T00:08:09.454Z,2.83
2022-09-16T00:10:36.091Z,2.67
2022-09-16T00:13:03.283Z,2.65
2022-09-16T00:15:29.783Z,3.30
2022-09-16T00:17:56.338Z,2.72
2022-09-16T00:20:22.956Z,3.22
2022-09-16T00:22:49.506Z,2.55
2022-09-16T00:25:16.135Z,3.08
2022-09-16T00:27:42.947Z,3.22
2022-09-16T00:30:09.835Z,3.20
2022-09-16T00:32:36.348Z,3.33
2022-09-16T00:35:02.905Z,2.80
2022-09-16T00:37:32.668Z,2.95
2022-09-16T00:39:59.270Z,3.30
2022-09-16T00:42:25.971Z,2.92
2022-09-16T00:45:02.341Z,3.72
2022-09-16T00:47:47.069Z,3.03
2022-09-16T00:50:38.005Z,3.22
2022-09-16T00:53:17.572Z,3.25
2022-09-16T00:55:45.246Z,3.58
2022-09-16T00:58:23.523Z,3.58
2022-09-16T01:00:50.947Z,3.88
2022-09-16T01:03:18.468Z,3.10
2022-09-16T01:05:45.969Z,2.70
2022-09-16T01:08:12.897Z,3.03
2022-09-16T01:10:42.281Z,3.08
2022-09-16T01:13:12.828Z,2.97
2022-09-16T01:16:05.669Z,3.25
2022-09-16T01:18:54.023Z,2.90
2022-09-16T01:21:31.430Z,2.80
2022-09-16T01:23:58.187Z,3.10
2022-09-16T01:26:58.793Z,3.05
2022-09-16T01:30:03.712Z,2.95
2022-09-16T01:33:01.505Z,2.88
2022-09-16T01:35:58.011Z,3.03
2022-09-16T01:38:29.848Z,2.90
2022-09-16T01:40:56.380Z,2.83
2022-09-16T01:43:28.827Z,3.42
2022-09-16T01:46:31.365Z,2.42
2022-09-16T01:51:46.490Z,2.42
2022-09-16T01:54:24.348Z,2.67
2022-09-16T01:57:07.867Z,2.30
2022-09-16T01:59:43.612Z,2.03
2022-09-16T02:02:39.358Z,2.38
2022-09-16T02:05:11.757Z,2.10
2022-09-16T02:07:42.986Z,2.20
2022-09-16T02:10:16.958Z,2.33
2022-09-16T02:12:45.990Z,2.35
2022-09-16T02:15:22.047Z,2.10
2022-09-16T02:17:56.616Z,2.40
2022-09-16T02:20:27.801Z,2.00
2022-09-16T02:23:01.856Z,2.20
2022-09-16T02:25:30.815Z,1.77
2022-09-16T02:28:00.907Z,2.10
2022-09-16T02:30:27.549Z,2.22
2022-09-16T02:33:00.870Z,2.00
2022-09-16T02:35:29.496Z,2.53
2022-09-16T02:38:02.338Z,2.20
2022-09-16T02:40:42.072Z,2.13
2022-09-16T02:43:09.275Z,1.98
2022-09-16T02:45:56.867Z,2.33
2022-09-16T02:48:46.323Z,2.38
2022-09-16T02:51:16.226Z,2.03
2022-09-16T02:54:06.024Z,2.20
2022-09-16T02:56:36.667Z,2.10
2022-09-16T02:59:05.863Z,2.15
2022-09-16T03:01:36.950Z,1.83
2022-09-16T03:04:04.187Z,2.20
2022-09-16T03:06:36.029Z,2.17
2022-09-16T03:09:06.056Z,2.30
2022-09-16T03:11:54.483Z,2.33
2022-09-16T03:14:39.840Z,2.15
2022-09-16T03:17:28.224Z,2.20
2022-09-16T03:20:33.405Z,2.42
2022-09-16T03:23:21.460Z,2.30
2022-09-16T03:26:07.436Z,2.08
2022-09-16T03:28:45.671Z,2.15
2022-09-16T03:31:15.629Z,2.08
2022-09-16T03:33:47.230Z,2.42
2022-09-16T03:36:19.420Z,2.47
2022-09-16T03:38:46.985Z,1.98
2022-09-16T03:41:15.021Z,2.08
2022-09-16T03:43:51.857Z,2.33
2022-09-16T03:46:18.391Z,2.10
2022-09-16T03:48:44.915Z,2.72
2022-09-16T03:51:12.690Z,2.50
2022-09-16T03:53:39.214Z,2.10
2022-09-16T03:56:06.072Z,2.17
2022-09-16T03:58:32.709Z,2.42
2022-09-16T04:00:59.318Z,2.13
2022-09-16T04:03:28.878Z,2.00
2022-09-16T04:05:58.203Z,2.30
2022-09-16T04:08:24.738Z,2.03
2022-09-16T04:10:59.842Z,2.10
2022-09-16T04:13:28.858Z,1.75
2022-09-16T04:15:55.410Z,2.33
2022-09-16T04:18:22.120Z,2.00
2022-09-16T04:20:48.724Z,2.00
2022-09-16T04:23:15.257Z,2.15
2022-09-16T04:25:42.030Z,2.53
2022-09-16T04:28:08.600Z,2.10
2022-09-16T04:30:36.609Z,1.90
2022-09-16T04:33:03.264Z,1.80
2022-09-16T04:35:29.815Z,2.42
2022-09-16T04:37:56.380Z,2.20
2022-09-16T04:40:22.979Z,1.85
2022-09-16T04:42:50.591Z,2.35
2022-09-16T04:45:17.675Z,2.45
2022-09-16T04:47:44.356Z,2.28
2022-09-16T04:50:11.338Z,2.70
2022-09-16T04:52:37.914Z,1.90
2022-09-16T04:55:04.792Z,2.40
2022-09-16T04:57:32.601Z,2.20
2022-09-16T04:59:59.585Z,1.77
2022-09-16T05:02:26.295Z,2.30
2022-09-16T05:04:52.839Z,1.80
2022-09-16T05:07:19.433Z,1.73
2022-09-16T05:09:46.246Z,1.98
2022-09-16T05:12:12.841Z,2.00
2022-09-16T05:14:39.797Z,2.20
2022-09-16T05:17:07.402Z,1.98
2022-09-16T05:19:33.965Z,1.98
2022-09-16T05:22:00.770Z,2.05
2022-09-16T05:24:27.307Z,1.67
2022-09-16T05:26:53.884Z,2.10
2022-09-16T05:29:20.662Z,2.30
2022-09-16T05:31:50.711Z,2.08
2022-09-16T05:34:19.829Z,2.15
2022-09-16T05:36:48.274Z,2.28
2022-09-16T05:39:25.827Z,2.00
2022-09-16T05:41:55.609Z,1.50
2022-09-16T05:44:22.788Z,1.90
2022-09-16T05:46:49.400Z,2.10
2022-09-16T05:49:20.681Z,1.83
2022-09-16T05:51:48.498Z,1.42
2022-09-16T05:54:15.699Z,1.70
2022-09-16T05:56:42.547Z,1.73
2022-09-16T05:59:12.064Z,1.90
2022-09-16T06:01:38.860Z,1.65
2022-09-16T06:04:07.511Z,1.77
2022-09-16T06:06:39.102Z,2.00
2022-09-16T06:09:20.252Z,1.50
2022-09-16T06:11:49.343Z,1.67
2022-09-16T06:14:27.108Z,2.00
2022-09-16T06:16:53.685Z,1.83
2022-09-16T06:19:24.885Z,1.80
2022-09-16T06:21:52.427Z,1.85
2022-09-16T06:24:20.661Z,2.17
2022-09-16T06:26:49.316Z,1.83
2022-09-16T06:29:17.559Z,1.70
2022-09-16T06:31:44.164Z,1.60
2022-09-16T06:34:14.870Z,1.60
2022-09-16T06:36:44.734Z,1.60
2022-09-16T06:39:13.575Z,1.80
2022-09-16T06:41:40.573Z,1.40
2022-09-16T06:44:07.173Z,1.58
2022-09-16T06:46:33.770Z,1.88
2022-09-16T06:49:05.093Z,1.70
2022-09-16T06:51:32.778Z,1.63
2022-09-16T06:54:01.378Z,1.70
2022-09-16T06:56:27.922Z,1.70
2022-09-16T06:58:55.903Z,1.30
2022-09-16T07:01:29.236Z,1.50
2022-09-16T07:03:58.276Z,2.00
2022-09-16T07:06:45.239Z,1.67
2022-09-16T07:09:14.595Z,1.92
2022-09-16T07:11:41.162Z,1.50
2022-09-16T07:14:09.393Z,1.65
2022-09-16T07:16:36.007Z,1.80
2022-09-16T07:19:04.525Z,2.08
2022-09-16T07:21:31.345Z,1.45
2022-09-16T07:23:59.890Z,1.65
2022-09-16T07:26:32.513Z,1.50
2022-09-16T07:29:00.866Z,1.55
2022-09-16T07:31:29.659Z,1.85
2022-09-16T07:34:03.487Z,1.52
2022-09-16T07:36:35.974Z,1.30
2022-09-16T07:39:03.418Z,1.45
2022-09-16T07:41:32.666Z,1.60
2022-09-16T07:44:00.657Z,1.40
2022-09-16T07:46:29.549Z,1.65
2022-09-16T07:48:56.619Z,1.67
2022-09-16T07:51:24.961Z,2.30
2022-09-16T07:54:05.254Z,1.48
2022-09-16T07:56:34.595Z,1.70
2022-09-16T07:59:03.258Z,1.42
2022-09-16T08:01:31.411Z,1.80
2022-09-16T08:03:59.705Z,1.80
2022-09-16T08:06:29.025Z,1.63
2022-09-16T08:09:02.401Z,2.70
2022-09-16T08:11:36.546Z,3.00
2022-09-16T08:14:03.130Z,2.17
2022-09-16T08:16:29.815Z,1.85
2022-09-16T08:18:58.727Z,1.90
2022-09-16T08:21:28.177Z,1.73
2022-09-16T08:23:55.798Z,1.17
2022-09-16T08:26:22.611Z,2.55
2022-09-16T08:29:07.887Z,1.95
2022-09-16T08:31:36.484Z,1.90
2022-09-16T08:34:03.455Z,1.30
2022-09-16T08:36:30.033Z,1.75
2022-09-16T08:38:56.889Z,1.25
2022-09-16T08:41:46.917Z,1.55
2022-09-16T08:44:41.098Z,1.95
2022-09-16T08:47:35.168Z,1.42
2022-09-16T08:50:06.271Z,1.45
2022-09-16T08:52:37.132Z,1.15
2022-09-16T08:55:16.767Z,0.90
2022-09-16T08:57:54.020Z,1.38
2022-09-16T09:00:20.820Z,1.15
2022-09-16T09:03:16.479Z,1.23
2022-09-16T09:05:50.278Z,1.27
2022-09-16T09:08:22.746Z,1.48
2022-09-16T09:10:57.359Z,1.42
2022-09-16T09:13:38.421Z,1.25
2022-09-16T09:16:33.210Z,1.13
2022-09-16T09:19:21.665Z,1.00
2022-09-16T09:22:00.709Z,0.93
2022-09-16T09:24:59.922Z,1.38
2022-09-16T09:27:32.729Z,1.17
2022-09-16T09:30:03.786Z,1.20
2022-09-16T09:32:46.341Z,1.10
2022-09-16T09:35:39.456Z,1.63
2022-09-16T09:38:27.744Z,1.15
2022-09-16T09:40:59.175Z,1.35
2022-09-16T09:43:35.830Z,1.20
2022-09-16T09:46:12.426Z,1.00
2022-09-16T09:48:44.451Z,0.93
2022-09-16T09:53:55.001Z,1.00
2022-09-16T09:59:30.432Z,1.08
2022-09-16T10:01:58.583Z,0.80
2022-09-16T10:04:25.402Z,1.17
2022-09-16T10:06:56.215Z,1.30
2022-09-16T10:09:23.371Z,0.95
2022-09-16T10:11:56.082Z,1.08
2022-09-16T10:14:26.633Z,0.98
2022-09-16T10:16:55.037Z,0.93
2022-09-16T10:19:27.192Z,0.95
2022-09-16T10:21:57.135Z,0.88
2022-09-16T10:24:35.660Z,1.10
2022-09-16T10:27:17.737Z,0.90
2022-09-16T10:29:44.304Z,1.05
2022-09-16T10:32:18.081Z,1.27
2022-09-16T10:34:46.608Z,1.10
2022-09-16T10:37:13.654Z,0.80
2022-09-16T10:40:16.138Z,0.95
2022-09-16T10:45:20.315Z,1.05
2022-09-16T10:47:53.723Z,1.08
2022-09-16T10:50:20.680Z,0.90
2022-09-16T10:52:48.747Z,1.00
2022-09-16T10:55:25.459Z,0.93
2022-09-16T10:57:53.486Z,0.90
2022-09-16T11:00:24.034Z,0.93
2022-09-16T11:03:09.158Z,1.08
2022-09-16T11:06:00.140Z,1.40
2022-09-16T11:09:03.809Z,1.08
2022-09-16T11:11:45.297Z,1.00
2022-09-16T11:14:18.050Z,1.35
2022-09-16T11:16:50.284Z,1.10
2022-09-16T11:19:32.423Z,0.90
2022-09-16T11:22:14.272Z,1.08
2022-09-16T11:24:56.065Z,0.88
2022-09-16T11:27:28.680Z,0.85
2022-09-16T11:30:16.232Z,0.80
2022-09-16T11:33:03.207Z,0.70
2022-09-16T11:35:54.408Z,0.70
2022-09-16T11:38:29.700Z,1.20
2022-09-16T11:41:33.890Z,0.70
2022-09-16T11:44:31.386Z,0.88
2022-09-16T11:47:01.018Z,0.68
2022-09-16T11:49:46.890Z,0.70
2022-09-16T11:52:28.142Z,1.05
2022-09-16T11:55:28.404Z,0.80
2022-09-16T11:58:00.281Z,0.57
2022-09-16T12:00:27.234Z,0.70
2022-09-16T12:03:13.044Z,0.80
2022-09-16T12:05:53.604Z,0.80
2022-09-16T12:08:37.283Z,0.75
2022-09-16T12:11:22.605Z,0.98
2022-09-16T12:14:05.623Z,1.02
2022-09-16T12:16:51.772Z,1.00
2022-09-16T12:19:26.952Z,0.80
2022-09-16T12:22:08.257Z,0.63
2022-09-16T12:24:40.923Z,1.10
2022-09-16T12:27:24.403Z,0.95
2022-09-16T12:30:00.922Z,1.25
2022-09-16T12:32:30.374Z,0.80
2022-09-16T12:35:03.773Z,1.00
2022-09-16T12:37:39.053Z,1.20
2022-09-16T12:40:07.066Z,1.10
2022-09-16T12:42:58.415Z,1.00
2022-09-16T12:45:37.494Z,1.08
2022-09-16T12:48:40.304Z,0.60
2022-09-16T12:51:32.259Z,0.70
2022-09-16T12:54:07.811Z,1.08
2022-09-16T12:56:50.927Z,0.52
2022-09-16T12:59:54.463Z,0.80
2022-09-16T13:02:26.646Z,0.70
2022-09-16T13:04:57.561Z,0.90
2022-09-16T13:07:35.205Z,0.57
2022-09-16T13:10:40.460Z,0.77
2022-09-16T13:13:25.050Z,1.02
2022-09-16T13:16:00.390Z,0.73
2022-09-16T13:18:45.562Z,0.90
2022-09-16T13:21:37.632Z,1.05
2022-09-16T13:24:28.569Z,0.50
2022-09-16T13:26:55.571Z,0.30
2022-09-16T13:29:32.112Z,0.73
2022-09-16T13:31:58.698Z,0.60
2022-09-16T13:34:25.384Z,0.50
2022-09-16T13:36:52.169Z,0.57
2022-09-16T13:39:34.150Z,0.40
2022-09-16T13:42:17.705Z,0.50
2022-09-16T13:44:44.298Z,0.68
2022-09-16T13:47:10.890Z,0.50
2022-09-16T13:50:00.749Z,0.40
2022-09-16T13:52:30.332Z,0.60
2022-09-16T13:55:10.910Z,0.57
2022-09-16T13:57:59.796Z,0.45
2022-09-16T14:00:32.309Z,1.30
2022-09-16T14:03:21.125Z,0.60
2022-09-16T14:06:04.468Z,0.50
2022-09-16T14:08:43.113Z,1.17
2022-09-16T14:11:21.941Z,0.80
2022-09-16T14:13:52.098Z,0.50
2022-09-16T14:16:30.803Z,0.90
2022-09-16T14:19:17.807Z,0.70
2022-09-16T14:21:44.377Z,0.70
2022-09-16T14:24:19.258Z,0.82
2022-09-16T14:26:56.930Z,0.60
2022-09-16T14:29:25.116Z,0.50
2022-09-16T14:31:57.106Z,0.70
2022-09-16T14:34:32.594Z,0.50
2022-09-16T14:36:59.561Z,0.90
2022-09-16T14:39:28.166Z,0.82
2022-09-16T14:41:59.271Z,0.70
2022-09-16T14:44:34.492Z,0.70
2022-09-16T14:47:07.818Z,0.70
2022-09-16T14:49:37.938Z,0.70
2022-09-16T14:52:04.975Z,0.75
2022-09-16T14:54:32.251Z,0.80
2022-09-16T14:57:05.966Z,0.90
2022-09-16T14:59:37.058Z,0.85
2022-09-16T15:02:24.948Z,0.98
2022-09-16T15:04:57.884Z,0.77
2022-09-16T15:07:34.132Z,0.70
2022-09-16T15:10:06.807Z,1.10
2022-09-16T15:12:37.627Z,0.60
2022-09-16T15:15:26.358Z,0.45
2022-09-16T15:18:22.149Z,0.50
2022-09-16T15:21:03.206Z,0.50
2022-09-16T15:23:30.613Z,0.75
2022-09-16T15:26:04.640Z,1.23
2022-09-16T15:28:31.204Z,0.73
2022-09-16T15:30:59.460Z,1.30
2022-09-16T15:33:37.651Z,0.90
2022-09-16T15:36:04.712Z,2.00
2022-09-16T15:38:31.391Z,1.23
2022-09-16T15:41:04.017Z,1.20
2022-09-16T15:43:40.008Z,1.10
2022-09-16T15:46:16.333Z,1.00
2022-09-16T15:48:50.003Z,1.23
2022-09-16T15:51:31.017Z,1.10
2022-09-16T15:54:48.307Z,1.00
2022-09-16T15:57:23.867Z,0.82
2022-09-16T15:59:53.173Z,0.90
2022-09-16T16:02:30.181Z,0.95
2022-09-16T16:05:15.134Z,1.17
2022-09-16T16:07:49.234Z,1.20
2022-09-16T16:10:27.667Z,0.80
2022-09-16T16:12:54.766Z,1.00
2022-09-16T16:15:26.876Z,0.88
2022-09-16T16:17:57.872Z,0.77
2022-09-16T16:20:24.659Z,1.23
2022-09-16T16:22:51.873Z,0.93
2022-09-16T16:25:19.023Z,1.00
2022-09-16T16:27:45.751Z,1.17
2022-09-16T16:30:12.523Z,1.00
2022-09-16T16:32:40.029Z,0.60
2022-09-16T16:35:06.942Z,0.60
2022-09-16T16:37:46.057Z,0.70
2022-09-16T16:40:14.222Z,0.98
2022-09-16T16:42:43.128Z,0.85
2022-09-16T16:45:11.106Z,0.90
2022-09-16T16:47:37.651Z,0.68
2022-09-16T16:50:04.673Z,0.80
2022-09-16T16:52:31.239Z,0.88
2022-09-16T16:54:57.773Z,0.80
2022-09-16T16:57:24.306Z,1.00
2022-09-16T16:59:52.057Z,0.80
2022-09-16T17:02:18.624Z,0.80
2022-09-16T17:04:45.219Z,0.80
2022-09-16T17:07:28.109Z,1.00
2022-09-16T17:09:57.300Z,0.88
2022-09-16T17:12:24.123Z,0.80
2022-09-16T17:14:50.683Z,0.80
2022-09-16T17:17:17.261Z,0.80
2022-09-16T17:19:43.820Z,0.88
2022-09-16T17:22:11.424Z,1.15
2022-09-16T17:24:37.977Z,0.85
2022-09-16T17:27:04.712Z,0.98
2022-09-16T17:29:31.332Z,0.63
2022-09-16T17:32:00.721Z,0.90
2022-09-16T17:34:27.605Z,0.90
2022-09-16T17:36:54.665Z,0.90
2022-09-16T17:39:22.205Z,0.98
2022-09-16T17:41:49.922Z,1.05
2022-09-16T17:44:18.016Z,1.08
2022-09-16T17:46:45.714Z,0.80
2022-09-16T17:49:21.798Z,1.00
2022-09-16T17:51:49.373Z,0.80
2022-09-16T17:54:16.709Z,1.00
2022-09-16T17:56:44.143Z,1.00
2022-09-16T17:59:12.720Z,0.98
2022-09-16T18:01:39.634Z,1.35
2022-09-16T18:04:06.908Z,1.00
2022-09-16T18:06:39.975Z,0.98
2022-09-16T18:09:07.509Z,0.88
2022-09-16T18:11:35.277Z,1.15
2022-09-16T18:14:04.490Z,0.68
2022-09-16T18:16:31.764Z,1.02
2022-09-16T18:19:00.588Z,0.75
2022-09-16T18:21:28.179Z,0.75
2022-09-16T18:23:57.298Z,0.98
2022-09-16T18:26:24.444Z,0.80
2022-09-16T18:29:09.091Z,1.05
2022-09-16T18:31:36.171Z,0.73
2022-09-16T18:34:02.770Z,0.60
2022-09-16T18:36:30.318Z,0.73
2022-09-16T18:38:58.491Z,0.70
2022-09-16T18:41:27.402Z,0.88
2022-09-16T18:44:04.940Z,0.90
2022-09-16T18:46:33.769Z,0.50
2022-09-16T18:49:00.828Z,0.70
2022-09-16T18:51:33.492Z,0.88
2022-09-16T18:54:03.029Z,0.90
2022-09-16T18:56:35.063Z,0.70
2022-09-16T19:01:49.105Z,0.77
2022-09-16T19:04:18.968Z,0.60
2022-09-16T19:06:50.806Z,0.80
2022-09-16T19:09:19.305Z,0.68
2022-09-16T19:11:45.917Z,0.88
2022-09-16T19:14:14.242Z,0.70
2022-09-16T19:16:42.947Z,0.90
2022-09-16T19:19:12.008Z,0.80
2022-09-16T19:21:38.770Z,0.80
2022-09-16T19:24:07.701Z,0.80
2022-09-16T19:26:36.756Z,1.00
2022-09-16T19:29:07.555Z,0.70
2022-09-16T19:31:37.126Z,0.52
2022-09-16T19:34:03.821Z,0.93
2022-09-16T19:36:32.413Z,0.93
2022-09-16T19:38:59.751Z,0.80
2022-09-16T19:41:31.652Z,0.70
2022-09-16T19:44:01.430Z,0.80
2022-09-16T19:46:31.743Z,0.90
2022-09-16T19:48:58.700Z,0.93
2022-09-16T19:51:26.721Z,0.90
2022-09-16T19:53:55.051Z,0.80
2022-09-16T19:56:24.751Z,0.88
2022-09-16T19:58:52.424Z,1.10
2022-09-16T20:01:21.818Z,0.90
2022-09-16T20:03:51.280Z,0.70
2022-09-16T20:06:23.480Z,0.80
2022-09-16T20:08:58.765Z,0.80
2022-09-16T20:11:27.903Z,0.80
2022-09-16T20:13:56.981Z,1.02
2022-09-16T20:16:26.462Z,1.05
2022-09-16T20:18:53.823Z,1.17
2022-09-16T20:21:23.760Z,1.55
2022-09-16T20:23:52.082Z,1.33
2022-09-16T20:26:20.138Z,1.45
2022-09-16T20:28:50.818Z,1.45
2022-09-16T20:31:22.635Z,1.63
2022-09-16T20:33:49.771Z,1.13
2022-09-16T20:36:18.478Z,1.25
2022-09-16T20:38:45.946Z,1.35
2022-09-16T20:41:15.964Z,0.95
2022-09-16T20:43:43.150Z,1.02
2022-09-16T20:46:15.596Z,1.10
2022-09-16T20:48:43.072Z,1.15
2022-09-16T20:51:14.949Z,1.30
2022-09-16T20:53:44.923Z,1.30
2022-09-16T20:56:15.646Z,0.98
2022-09-16T20:58:42.990Z,0.90
2022-09-16T21:01:18.718Z,1.05
2022-09-16T21:03:45.715Z,1.00
2022-09-16T21:06:17.340Z,1.05
2022-09-16T21:08:44.271Z,0.98
2022-09-16T21:11:13.574Z,1.00
2022-09-16T21:13:43.988Z,0.95
2022-09-16T21:16:13.680Z,1.20
2022-09-16T21:18:40.536Z,1.38
2022-09-16T21:21:19.560Z,1.00
2022-09-16T21:23:47.219Z,1.25
2022-09-16T21:26:16.870Z,1.30
2022-09-16T21:28:44.801Z,1.00
2022-09-16T21:31:13.367Z,1.08
2022-09-16T21:33:42.054Z,1.20
2022-09-16T21:36:12.424Z,1.35
2022-09-16T21:38:40.316Z,1.25
2022-09-16T21:41:12.977Z,1.25
2022-09-16T21:43:55.620Z,1.40
2022-09-16T21:46:25.863Z,1.20
2022-09-16T21:48:55.665Z,1.45
2022-09-16T21:51:22.216Z,1.35
2022-09-16T21:53:48.721Z,1.55
2022-09-16T21:56:20.928Z,1.08
2022-09-16T21:58:49.000Z,1.40
2022-09-16T22:01:24.278Z,1.52
2022-09-16T22:03:59.101Z,1.30
2022-09-16T22:06:27.271Z,1.25
2022-09-16T22:08:55.410Z,1.45
2022-09-16T22:11:25.454Z,1.42
2022-09-16T22:13:54.090Z,1.35
2022-09-16T22:16:27.407Z,1.30
2022-09-16T22:19:00.634Z,1.33
2022-09-16T22:21:32.109Z,1.50
2022-09-16T22:24:00.974Z,1.52
2022-09-16T22:26:28.548Z,1.52
2022-09-16T22:28:55.298Z,1.63
2022-09-16T22:31:25.392Z,1.35
2022-09-16T22:33:53.922Z,1.55
2022-09-16T22:36:25.733Z,1.40
2022-09-16T22:38:57.091Z,1.58
2022-09-16T22:41:25.203Z,1.50
2022-09-16T22:43:53.012Z,1.60
2022-09-16T22:46:25.162Z,1.58
2022-09-16T22:48:52.528Z,1.92
2022-09-16T22:51:20.633Z,1.52
2022-09-16T22:53:48.335Z,2.00
2022-09-16T22:56:17.936Z,1.90
2022-09-16T22:58:45.662Z,1.55
2022-09-16T23:01:15.435Z,1.73
2022-09-16T23:03:43.283Z,2.10
2022-09-16T23:06:13.135Z,1.90
2022-09-16T23:08:42.175Z,1.73
2022-09-16T23:11:14.645Z,2.10
2022-09-16T23:13:45.335Z,1.98
2022-09-16T23:16:17.871Z,2.33
2022-09-16T23:18:46.083Z,1.70
2022-09-16T23:21:16.018Z,2.20
2022-09-16T23:23:45.021Z,2.17
2022-09-16T23:26:17.229Z,2.08
2022-09-16T23:28:44.547Z,1.92
2022-09-16T23:31:16.665Z,1.95
2022-09-16T23:33:44.207Z,2.42
2022-09-16T23:36:14.654Z,2.10
2022-09-16T23:38:42.619Z,2.00
2022-09-16T23:41:13.407Z,2.03
2022-09-16T23:43:43.934Z,1.70
2022-09-16T23:46:14.217Z,1.42
2022-09-16T23:48:42.567Z,1.95
2022-09-16T23:51:09.254Z,1.67
2022-09-16T23:53:37.288Z,1.83
2022-09-16T23:56:08.364Z,1.80
2022-09-16T23:58:35.383Z,1.45
